Time;durP1;ratioP1;P1;durP2;ratioP2;P2;SDS_P1;SDS_P2;PMS_P1;PMS_P2;Temp;Humidity;BMP_temperature;BMP_pressure;BME280_temperature;BME280_humidity;BME280_pressure;Samples;Min_cycle;Max_cycle;Signal;HPM_P1;HPM_P2
2021/01/07 00:01:40;;;;;;;2.53;1.98;;;9.70;81.30;;;;;;5104536;28;20056;-41
2021/01/07 00:04:07;;;;;;;2.00;1.70;;;9.70;80.50;;;;;;5104381;28;20020;-41
2021/01/07 00:06:34;;;;;;;1.55;1.33;;;9.70;80.50;;;;;;5096562;28;20040;-41
2021/01/07 00:09:00;;;;;;;2.35;1.75;;;9.70;80.40;;;;;;5082474;28;20029;-41
2021/01/07 00:11:26;;;;;;;1.77;1.67;;;9.70;80.20;;;;;;5082782;28;20047;-42
2021/01/07 00:13:53;;;;;;;1.65;1.48;;;9.70;80.20;;;;;;5083984;28;20088;-42
2021/01/07 00:16:19;;;;;;;2.72;1.90;;;9.60;79.90;;;;;;5084111;28;20091;-41
2021/01/07 00:18:45;;;;;;;1.75;1.45;;;9.70;79.90;;;;;;5085034;28;20025;-41
2021/01/07 00:21:15;;;;;;;2.28;2.08;;;9.60;79.70;;;;;;5124721;28;20015;-41
2021/01/07 00:23:41;;;;;;;2.13;1.52;;;9.60;79.80;;;;;;5124496;28;20057;-41
2021/01/07 00:26:07;;;;;;;1.88;1.40;;;9.60;79.70;;;;;;5124399;28;20054;-41
2021/01/07 00:28:33;;;;;;;1.63;1.50;;;9.60;79.60;;;;;;5124199;27;20089;-41
2021/01/07 00:31:00;;;;;;;1.52;1.42;;;9.60;79.60;;;;;;5108675;28;20028;-41
2021/01/07 00:33:26;;;;;;;2.38;1.67;;;9.60;79.60;;;;;;5103955;28;20131;-41
2021/01/07 00:35:52;;;;;;;1.42;1.33;;;9.60;79.40;;;;;;5101812;28;20024;-41
2021/01/07 00:38:18;;;;;;;2.05;1.60;;;9.60;79.30;;;;;;5083356;28;20140;-41
2021/01/07 00:40:44;;;;;;;3.00;1.63;;;9.60;79.20;;;;;;5101412;28;20028;-41
2021/01/07 00:43:10;;;;;;;1.77;1.58;;;9.60;79.30;;;;;;5120897;28;20162;-41
2021/01/07 00:45:36;;;;;;;1.85;1.55;;;9.60;79.40;;;;;;5124329;28;20092;-41
2021/01/07 00:48:03;;;;;;;1.52;1.42;;;9.50;79.20;;;;;;5123654;28;20028;-41
2021/01/07 00:50:29;;;;;;;1.80;1.70;;;9.50;79.30;;;;;;5104115;28;20020;-41
2021/01/07 00:52:55;;;;;;;1.98;1.80;;;9.50;79.50;;;;;;5103523;28;20105;-41
2021/01/07 00:55:21;;;;;;;2.60;1.63;;;9.50;79.40;;;;;;5103709;28;20016;-42
2021/01/07 00:57:48;;;;;;;3.17;1.50;;;9.50;79.40;;;;;;5102271;28;20138;-41
2021/01/07 01:00:16;;;;;;;2.33;1.75;;;9.50;79.30;;;;;;5094300;28;20071;-41
2021/01/07 01:02:42;;;;;;;2.22;1.75;;;9.50;79.30;;;;;;5083025;28;20033;-41
2021/01/07 01:05:09;;;;;;;2.53;1.70;;;9.50;79.30;;;;;;5083126;28;20017;-42
2021/01/07 01:07:35;;;;;;;2.15;1.65;;;9.50;79.30;;;;;;5082936;28;20128;-41
2021/01/07 01:10:01;;;;;;;1.98;1.75;;;9.50;79.20;;;;;;5082678;28;20028;-41
2021/01/07 01:12:27;;;;;;;1.75;1.50;;;9.40;79.20;;;;;;5083240;28;20031;-41
2021/01/07 01:14:54;;;;;;;2.55;1.80;;;9.40;79.20;;;;;;5082898;28;20031;-41
2021/01/07 01:17:20;;;;;;;2.08;1.60;;;9.40;79.80;;;;;;5083154;28;20177;-41
2021/01/07 01:19:46;;;;;;;1.80;1.52;;;9.40;79.10;;;;;;5082598;28;20040;-41
2021/01/07 01:22:12;;;;;;;2.83;1.80;;;9.40;79.10;;;;;;5082868;28;20024;-41
2021/01/07 01:24:38;;;;;;;1.90;1.70;;;9.40;79.10;;;;;;5083059;28;20017;-41
2021/01/07 01:27:04;;;;;;;2.03;1.75;;;9.40;79.10;;;;;;5082767;28;20136;-41
2021/01/07 01:29:30;;;;;;;2.20;1.90;;;9.40;79.10;;;;;;5085551;28;20039;-41
2021/01/07 01:31:57;;;;;;;2.35;1.50;;;9.30;79.10;;;;;;5105088;28;20035;-41
2021/01/07 01:34:23;;;;;;;1.90;1.70;;;9.40;79.20;;;;;;5102895;28;20032;-41
2021/01/07 01:36:50;;;;;;;2.05;1.52;;;9.30;79.20;;;;;;5101360;28;20024;-41
2021/01/07 01:39:17;;;;;;;1.70;1.45;;;9.30;79.20;;;;;;5102654;28;20032;-41
2021/01/07 01:41:46;;;;;;;1.98;1.50;;;9.30;79.20;;;;;;5102918;28;20035;-41
2021/01/07 01:44:12;;;;;;;2.28;1.77;;;9.30;79.20;;;;;;5102820;28;20096;-41
2021/01/07 01:46:39;;;;;;;1.87;1.63;;;9.30;79.20;;;;;;5102716;28;20473;-41
2021/01/07 01:49:06;;;;;;;2.03;1.50;;;9.30;79.20;;;;;;5106114;28;20039;-41
2021/01/07 01:51:32;;;;;;;2.00;1.73;;;9.20;79.20;;;;;;5123269;28;20019;-41
2021/01/07 01:53:58;;;;;;;1.57;1.43;;;9.20;79.20;;;;;;5104860;28;20028;-41
2021/01/07 01:56:24;;;;;;;1.95;1.75;;;9.30;79.20;;;;;;5121880;28;20027;-41
2021/01/07 01:58:51;;;;;;;2.05;1.58;;;9.20;79.20;;;;;;5122907;28;20052;-41
2021/01/07 02:01:18;;;;;;;2.25;1.77;;;9.20;79.20;;;;;;5105041;28;20593;-41
2021/01/07 02:03:44;;;;;;;2.60;1.85;;;9.20;79.20;;;;;;5102766;28;20564;-41
2021/01/07 02:06:14;;;;;;;2.10;1.50;;;9.20;79.20;;;;;;5096794;28;20032;-41
2021/01/07 02:08:47;;;;;;;1.73;1.42;;;9.20;79.40;;;;;;5080529;28;20044;-41
2021/01/07 02:11:14;;;;;;;1.92;1.73;;;9.20;79.30;;;;;;5081266;28;20040;-41
2021/01/07 02:13:44;;;;;;;2.63;2.13;;;9.20;79.30;;;;;;5082372;28;20805;-41
2021/01/07 02:16:10;;;;;;;2.63;1.95;;;9.20;79.30;;;;;;5081049;28;20088;-42
2021/01/07 02:18:36;;;;;;;2.35;1.60;;;9.10;79.20;;;;;;5089529;28;20073;-41
2021/01/07 02:21:03;;;;;;;1.88;1.58;;;9.10;79.20;;;;;;5102095;28;20058;-41
2021/01/07 02:23:29;;;;;;;2.13;1.90;;;9.10;79.10;;;;;;5102426;28;20028;-41
2021/01/07 02:25:56;;;;;;;1.98;1.65;;;9.10;79.20;;;;;;5101204;28;20151;-42
2021/01/07 02:28:23;;;;;;;2.40;1.83;;;9.10;79.30;;;;;;5101004;28;20035;-41
2021/01/07 02:30:49;;;;;;;2.40;1.98;;;9.10;79.10;;;;;;5100469;28;20842;-42
2021/01/07 02:33:15;;;;;;;2.38;1.75;;;9.10;79.20;;;;;;5102447;28;20129;-41
2021/01/07 02:35:41;;;;;;;2.20;1.92;;;9.10;79.20;;;;;;5118434;28;20032;-41
2021/01/07 02:38:07;;;;;;;1.50;1.35;;;9.10;79.20;;;;;;5122653;28;20076;-42
2021/01/07 02:40:34;;;;;;;2.28;1.90;;;9.10;79.20;;;;;;5118298;28;20024;-42
2021/01/07 02:43:03;;;;;;;2.63;2.17;;;9.00;79.20;;;;;;5105640;28;20048;-42
2021/01/07 02:45:30;;;;;;;2.53;1.80;;;9.00;79.20;;;;;;5109292;28;20480;-42
2021/01/07 02:47:56;;;;;;;2.92;2.40;;;9.00;79.20;;;;;;5104781;28;20055;-41
2021/01/07 02:50:22;;;;;;;2.50;2.10;;;9.00;79.10;;;;;;5120322;28;20073;-42
2021/01/07 02:52:48;;;;;;;2.35;1.75;;;9.00;79.20;;;;;;5126398;28;20096;-42
2021/01/07 02:55:14;;;;;;;2.38;1.83;;;9.00;79.20;;;;;;5126665;28;20034;-42
2021/01/07 02:57:40;;;;;;;2.30;1.85;;;9.00;79.20;;;;;;5126339;28;20035;-42
2021/01/07 03:00:07;;;;;;;2.70;1.88;;;8.90;79.10;;;;;;5117880;28;20428;-42
2021/01/07 03:02:33;;;;;;;2.40;2.08;;;9.00;79.10;;;;;;5105814;28;20032;-42
2021/01/07 03:04:59;;;;;;;2.20;1.88;;;8.90;79.10;;;;;;5105838;28;20068;-41
2021/01/07 03:07:25;;;;;;;2.28;2.05;;;8.90;79.10;;;;;;5090517;28;20063;-41
2021/01/07 03:09:52;;;;;;;2.13;1.73;;;8.90;79.10;;;;;;5085427;28;20036;-42
2021/01/07 03:12:18;;;;;;;4.25;2.10;;;8.90;79.10;;;;;;5085226;28;20028;-42
2021/01/07 03:14:45;;;;;;;2.67;2.05;;;8.90;79.10;;;;;;5083828;28;20055;-42
2021/01/07 03:17:12;;;;;;;2.90;2.17;;;8.90;79.10;;;;;;5085411;28;20020;-41
2021/01/07 03:19:38;;;;;;;2.67;2.10;;;8.90;79.10;;;;;;5085155;28;20093;-42
2021/01/07 03:22:05;;;;;;;2.28;1.90;;;8.90;79.10;;;;;;5084987;28;20039;-41
2021/01/07 03:24:31;;;;;;;2.38;1.90;;;8.90;79.20;;;;;;5085190;28;20092;-42
2021/01/07 03:26:57;;;;;;;3.15;2.40;;;8.90;79.20;;;;;;5083718;28;21143;-42
2021/01/07 03:29:24;;;;;;;2.40;1.90;;;8.80;79.10;;;;;;5087176;28;20064;-42
2021/01/07 03:31:50;;;;;;;2.45;1.85;;;8.80;79.10;;;;;;5105189;28;20112;-42
2021/01/07 03:34:16;;;;;;;2.28;2.00;;;8.80;79.20;;;;;;5105276;28;20556;-42
2021/01/07 03:36:43;;;;;;;2.38;2.03;;;8.80;79.10;;;;;;5105189;27;20036;-42
2021/01/07 03:39:10;;;;;;;2.72;2.13;;;8.80;79.20;;;;;;5104982;28;20020;-41
2021/01/07 03:41:37;;;;;;;2.58;1.77;;;8.80;79.20;;;;;;5104726;28;20066;-40
2021/01/07 03:44:04;;;;;;;2.65;2.10;;;8.80;79.20;;;;;;5105067;28;20090;-42
2021/01/07 03:46:31;;;;;;;2.33;2.03;;;8.80;79.20;;;;;;5105115;28;20031;-42
2021/01/07 03:48:57;;;;;;;2.58;2.10;;;8.70;79.20;;;;;;5107288;28;20036;-42
2021/01/07 03:51:23;;;;;;;2.10;1.90;;;8.70;79.20;;;;;;5125323;28;20107;-42
2021/01/07 03:53:49;;;;;;;3.20;2.00;;;8.70;79.20;;;;;;5124694;28;20039;-42
2021/01/07 03:56:15;;;;;;;2.95;2.10;;;8.70;79.20;;;;;;5125272;28;20027;-42
2021/01/07 03:58:41;;;;;;;2.30;2.03;;;8.70;79.20;;;;;;5125257;28;20085;-42
2021/01/07 04:01:08;;;;;;;2.58;2.17;;;8.70;79.20;;;;;;5108021;28;20047;-42
2021/01/07 04:03:34;;;;;;;3.45;2.03;;;8.70;79.20;;;;;;5104761;28;20042;-42
2021/01/07 04:06:00;;;;;;;2.28;1.85;;;8.70;79.20;;;;;;5101620;28;20093;-39
2021/01/07 04:08:26;;;;;;;2.50;2.13;;;8.70;79.20;;;;;;5084045;28;20050;-42
2021/01/07 04:10:52;;;;;;;3.08;2.17;;;8.70;79.20;;;;;;5084328;28;20025;-42
2021/01/07 04:13:18;;;;;;;3.83;2.08;;;8.60;79.20;;;;;;5084171;28;20032;-42
2021/01/07 04:15:45;;;;;;;2.47;1.90;;;8.60;79.20;;;;;;5084175;28;20035;-41
2021/01/07 04:18:11;;;;;;;2.80;2.13;;;8.60;79.20;;;;;;5084032;28;20854;-42
2021/01/07 04:20:37;;;;;;;2.20;2.00;;;8.60;79.10;;;;;;5084140;28;20028;-42
2021/01/07 04:23:03;;;;;;;2.55;2.10;;;8.60;79.20;;;;;;5083764;28;20170;-41
2021/01/07 04:25:29;;;;;;;2.55;2.22;;;8.60;79.10;;;;;;5084020;28;20027;-42
2021/01/07 04:27:55;;;;;;;2.45;1.90;;;8.60;79.20;;;;;;5083732;28;20040;-42
2021/01/07 04:30:22;;;;;;;2.25;2.05;;;8.50;79.20;;;;;;5094244;28;20028;-42
2021/01/07 04:32:48;;;;;;;2.58;1.95;;;8.60;79.30;;;;;;5103951;28;20035;-42
2021/01/07 04:35:14;;;;;;;3.10;2.25;;;8.60;79.30;;;;;;5103946;28;20047;-41
2021/01/07 04:37:40;;;;;;;2.83;2.17;;;8.60;79.20;;;;;;5105170;28;20034;-42
2021/01/07 04:40:07;;;;;;;2.72;1.90;;;8.50;79.20;;;;;;5123106;28;20020;-42
2021/01/07 04:42:33;;;;;;;3.30;2.10;;;8.50;79.20;;;;;;5124262;28;20032;-41
2021/01/07 04:45:00;;;;;;;3.20;2.22;;;8.50;79.20;;;;;;5122798;28;20051;-42
2021/01/07 04:47:26;;;;;;;;;;;8.50;79.20;;;;;;5104161;28;20028;-42
2021/01/07 04:49:52;;;;;;;2.63;2.10;;;8.50;79.20;;;;;;5112801;28;19915;-42
2021/01/07 04:52:19;;;;;;;3.25;2.03;;;8.50;79.20;;;;;;5122574;28;20472;-42
2021/01/07 04:54:45;;;;;;;3.05;2.40;;;8.50;79.30;;;;;;5121884;28;20023;-41
2021/01/07 04:57:11;;;;;;;2.92;2.33;;;8.50;79.30;;;;;;5124187;28;20114;-42
2021/01/07 04:59:37;;;;;;;3.13;2.50;;;8.40;79.20;;;;;;5119807;28;20218;-41
2021/01/07 05:02:03;;;;;;;4.00;2.10;;;8.50;79.20;;;;;;5103350;28;20020;-42
2021/01/07 05:04:29;;;;;;;3.90;2.20;;;8.50;79.30;;;;;;5103101;28;20074;-42
2021/01/07 05:06:58;;;;;;;4.78;2.47;;;8.50;79.30;;;;;;5102758;28;20036;-42
2021/01/07 05:09:24;;;;;;;3.97;2.15;;;8.40;79.30;;;;;;5101925;28;20050;-41
2021/01/07 05:11:51;;;;;;;2.47;2.00;;;8.40;79.30;;;;;;5103371;28;20048;-42
2021/01/07 05:14:17;;;;;;;2.78;2.42;;;8.40;79.20;;;;;;5103104;28;20032;-42
2021/01/07 05:16:43;;;;;;;2.60;2.28;;;8.40;79.20;;;;;;5103247;28;20020;-41
2021/01/07 05:19:09;;;;;;;3.58;2.30;;;8.40;79.20;;;;;;5103428;28;20140;-41
2021/01/07 05:21:35;;;;;;;3.25;2.15;;;8.40;79.30;;;;;;5103264;28;20035;-41
2021/01/07 05:24:02;;;;;;;2.50;2.22;;;8.40;79.30;;;;;;5102707;28;20040;-41
2021/01/07 05:26:28;;;;;;;4.30;2.33;;;8.40;79.30;;;;;;5103028;28;20056;-41
2021/01/07 05:28:55;;;;;;;3.58;2.55;;;8.40;80.00;;;;;;5101732;28;20036;-41
2021/01/07 05:31:23;;;;;;;3.80;2.53;;;8.40;79.30;;;;;;5084298;28;20038;-41
2021/01/07 05:33:49;;;;;;;4.43;2.55;;;8.30;79.30;;;;;;5081205;28;20029;-41
2021/01/07 05:36:28;;;;;;;2.63;2.10;;;8.40;80.00;;;;;;5088007;28;20354;-41
2021/01/07 05:38:57;;;;;;;2.78;2.35;;;8.40;79.40;;;;;;5106466;28;20023;-41
2021/01/07 05:41:24;;;;;;;3.38;2.45;;;8.30;79.30;;;;;;5110826;28;20031;-42
2021/01/07 05:44:08;;;;;;;3.55;2.55;;;8.30;80.00;;;;;;5102691;28;20038;-41
2021/01/07 05:46:34;;;;;;;3.28;2.45;;;8.30;79.30;;;;;;5102958;28;20036;-41
2021/01/07 05:49:01;;;;;;;2.47;2.10;;;8.30;79.30;;;;;;5102815;28;20054;-41
2021/01/07 05:51:28;;;;;;;3.03;2.28;;;8.30;79.40;;;;;;5102944;28;20048;-41
2021/01/07 05:53:57;;;;;;;3.00;2.20;;;8.30;79.40;;;;;;5102733;28;20127;-41
2021/01/07 05:56:23;;;;;;;4.60;2.65;;;8.30;79.40;;;;;;5102848;28;20103;-41
2021/01/07 05:58:53;;;;;;;3.30;2.40;;;8.30;79.40;;;;;;5102691;28;20035;-41
2021/01/07 06:01:20;;;;;;;3.97;2.63;;;8.30;79.40;;;;;;5102741;28;20809;-41
2021/01/07 06:03:51;;;;;;;3.30;2.30;;;8.30;79.40;;;;;;5102696;28;20028;-41
2021/01/07 06:06:18;;;;;;;3.47;2.05;;;8.30;79.40;;;;;;5097353;28;20028;-41
2021/01/07 06:08:57;;;;;;;3.25;2.63;;;8.30;80.10;;;;;;5080678;28;20104;-41
2021/01/07 06:11:24;;;;;;;3.30;2.50;;;8.20;79.30;;;;;;5082422;28;20036;-41
2021/01/07 06:13:51;;;;;;;4.03;2.50;;;8.20;79.40;;;;;;5082051;28;20035;-46
2021/01/07 06:16:18;;;;;;;;;;;8.20;79.40;;;;;;5083311;28;20028;-41
2021/01/07 06:18:44;;;;;;;2.38;1.92;;;8.20;79.40;;;;;;5084906;28;19908;-41
2021/01/07 06:21:11;;;;;;;2.92;2.53;;;8.20;79.40;;;;;;5084898;28;20035;-41
2021/01/07 06:23:41;;;;;;;3.45;2.55;;;8.20;79.40;;;;;;5085946;28;20054;-42
2021/01/07 06:26:24;;;;;;;3.95;2.55;;;8.20;79.40;;;;;;5086225;28;20040;-41
2021/01/07 06:29:00;;;;;;;3.88;2.67;;;8.20;79.40;;;;;;5086023;28;20039;-42
2021/01/07 06:31:33;;;;;;;3.40;2.25;;;8.20;79.40;;;;;;5105330;28;20031;-41
2021/01/07 06:33:59;;;;;;;3.40;2.45;;;8.20;79.40;;;;;;5106094;28;20058;-41
2021/01/07 06:36:42;;;;;;;4.25;2.80;;;8.20;79.50;;;;;;5099657;28;20016;-42
2021/01/07 06:39:08;;;;;;;4.75;2.90;;;8.20;79.50;;;;;;5108795;28;20024;-41
2021/01/07 06:41:34;;;;;;;3.03;2.28;;;8.20;79.50;;;;;;5106308;28;20024;-41
2021/01/07 06:44:04;;;;;;;3.10;2.17;;;8.20;79.50;;;;;;5105725;28;20031;-41
2021/01/07 06:46:40;;;;;;;3.95;2.60;;;8.20;79.40;;;;;;5104631;28;20763;-41
2021/01/07 06:49:27;;;;;;;3.40;2.33;;;8.10;79.40;;;;;;5106551;28;20044;-41
2021/01/07 06:51:56;;;;;;;3.53;2.42;;;8.10;79.40;;;;;;5104536;28;20044;-41
2021/01/07 06:54:24;;;;;;;2.95;2.47;;;8.10;79.40;;;;;;5105594;28;20055;-41
2021/01/07 06:56:53;;;;;;;4.18;3.00;;;8.10;79.50;;;;;;5105935;28;20024;-41
2021/01/07 06:59:21;;;;;;;3.47;2.50;;;8.10;79.50;;;;;;5105999;28;20035;-41
2021/01/07 07:01:48;;;;;;;3.95;2.30;;;8.10;79.50;;;;;;5104662;28;20523;-41
2021/01/07 07:04:23;;;;;;;3.45;2.47;;;8.10;79.50;;;;;;5105595;28;20023;-41
2021/01/07 07:07:00;;;;;;;3.90;2.53;;;8.10;79.50;;;;;;5105807;28;20039;-41
2021/01/07 07:09:27;;;;;;;3.22;2.22;;;8.10;79.50;;;;;;5105543;28;20047;-41
2021/01/07 07:11:56;;;;;;;3.22;2.17;;;8.10;79.50;;;;;;5105574;28;20044;-41
2021/01/07 07:14:23;;;;;;;4.85;2.85;;;8.10;79.50;;;;;;5105457;28;20027;-41
2021/01/07 07:16:49;;;;;;;4.32;2.80;;;8.10;79.60;;;;;;5105662;28;20077;-41
2021/01/07 07:19:28;;;;;;;3.78;2.47;;;8.00;79.50;;;;;;5109339;28;20024;-41
2021/01/07 07:22:03;;;;;;;4.78;2.67;;;8.00;79.60;;;;;;5125993;27;20028;-41
2021/01/07 07:24:42;;;;;;;3.60;2.72;;;8.00;79.40;;;;;;5125408;28;20031;-42
2021/01/07 07:27:11;;;;;;;3.75;2.60;;;8.00;79.60;;;;;;5125678;28;20047;-41
2021/01/07 07:29:39;;;;;;;2.72;2.40;;;8.00;79.50;;;;;;5120503;28;20032;-42
2021/01/07 07:32:27;;;;;;;3.90;2.95;;;8.00;79.50;;;;;;5105306;28;20087;-41
2021/01/07 07:34:54;;;;;;;;;;;8.00;79.60;;;;;;5105193;28;20031;-42
2021/01/07 07:37:25;;;;;;;3.83;2.58;;;8.00;79.60;;;;;;5090814;28;19978;-41
2021/01/07 07:40:00;;;;;;;3.80;3.00;;;8.00;79.60;;;;;;5093107;28;20822;-41
2021/01/07 07:42:28;;;;;;;3.78;2.60;;;8.00;79.60;;;;;;5105208;28;20020;-41
2021/01/07 07:44:54;;;;;;;3.88;2.72;;;8.00;79.60;;;;;;5104879;28;20066;-41
2021/01/07 07:47:22;;;;;;;4.63;3.10;;;7.90;79.60;;;;;;5104749;28;20020;-41
2021/01/07 07:49:58;;;;;;;3.53;2.63;;;7.90;79.50;;;;;;5114653;28;20071;-41
2021/01/07 07:52:24;;;;;;;4.70;3.38;;;7.90;79.60;;;;;;5125329;28;20114;-41
2021/01/07 07:55:04;;;;;;;3.60;2.90;;;7.90;79.60;;;;;;5124935;28;20080;-41
2021/01/07 07:57:32;;;;;;;4.85;2.80;;;7.90;79.60;;;;;;5120492;28;20602;-41
2021/01/07 08:00:17;;;;;;;4.50;3.00;;;7.90;79.60;;;;;;5104378;28;20043;-42
2021/01/07 08:02:44;;;;;;;3.88;2.70;;;7.90;79.70;;;;;;5104478;28;20028;-41
2021/01/07 08:05:28;;;;;;;4.43;3.08;;;7.90;79.60;;;;;;5104328;28;20050;-41
2021/01/07 08:07:54;;;;;;;3.22;2.47;;;7.90;79.60;;;;;;5104285;28;20036;-44
2021/01/07 08:10:21;;;;;;;4.57;2.95;;;7.90;79.60;;;;;;5104556;28;20028;-41
2021/01/07 08:12:48;;;;;;;3.00;2.70;;;7.90;79.60;;;;;;5104435;28;20028;-41
2021/01/07 08:15:32;;;;;;;3.93;2.67;;;7.80;79.60;;;;;;5102820;28;20057;-41
2021/01/07 08:18:20;;;;;;;4.57;3.17;;;7.80;79.60;;;;;;5104428;28;20119;-41
2021/01/07 08:20:46;;;;;;;6.38;3.15;;;7.80;79.60;;;;;;5122258;28;20055;-41
2021/01/07 08:23:14;;;;;;;3.47;2.45;;;7.80;79.60;;;;;;5124458;28;20057;-41
2021/01/07 08:25:41;;;;;;;4.90;3.08;;;7.80;79.60;;;;;;5124438;28;20077;-41
2021/01/07 08:28:43;;;;;;;3.67;2.70;;;7.80;79.70;;;;;;5124484;28;20099;-41
2021/01/07 08:31:18;;;;;;;4.70;3.08;;;7.80;79.60;;;;;;5091556;28;20035;-41
2021/01/07 08:33:48;;;;;;;4.53;2.97;;;7.80;79.60;;;;;;5102915;28;20024;-41
2021/01/07 08:36:15;;;;;;;5.10;3.20;;;7.80;79.60;;;;;;5098643;28;20055;-41
2021/01/07 08:38:41;;;;;;;4.95;3.00;;;7.70;79.70;;;;;;5082063;28;20035;-41
2021/01/07 08:41:14;;;;;;;3.95;3.22;;;7.70;79.60;;;;;;5097021;28;20035;-41
2021/01/07 08:43:41;;;;;;;4.63;2.90;;;7.70;79.70;;;;;;5103830;28;20032;-41
2021/01/07 08:46:37;;;;;;;5.07;3.20;;;7.70;79.60;;;;;;5103503;28;20028;-41
2021/01/07 08:49:30;;;;;;;4.20;3.10;;;7.70;79.60;;;;;;5100491;28;20050;-41
2021/01/07 08:51:59;;;;;;;3.90;3.13;;;7.70;80.40;;;;;;5081315;28;20039;-41
2021/01/07 08:54:25;;;;;;;4.63;3.25;;;7.70;79.70;;;;;;5086411;28;20028;-41
2021/01/07 08:56:52;;;;;;;4.45;2.78;;;7.70;79.70;;;;;;5104991;28;20027;-41
2021/01/07 08:59:31;;;;;;;4.20;3.00;;;7.70;79.80;;;;;;5103524;28;20043;-41
2021/01/07 09:02:20;;;;;;;3.60;2.70;;;7.70;79.70;;;;;;5103561;28;20036;-41
2021/01/07 09:04:49;;;;;;;4.63;2.95;;;7.70;79.80;;;;;;5102102;28;20054;-41
2021/01/07 09:07:16;;;;;;;4.05;3.20;;;7.70;79.70;;;;;;5102950;28;20046;-41
2021/01/07 09:09:57;;;;;;;4.40;3.13;;;7.60;79.70;;;;;;5103289;28;20039;-41
2021/01/07 09:12:33;;;;;;;5.00;3.28;;;7.60;79.70;;;;;;5103191;28;20028;-41
2021/01/07 09:15:05;;;;;;;4.30;3.30;;;7.60;79.70;;;;;;5103062;28;20024;-41
2021/01/07 09:17:41;;;;;;;4.25;3.15;;;7.60;79.80;;;;;;5102930;28;20016;-41
2021/01/07 09:20:09;;;;;;;4.57;2.95;;;7.60;79.80;;;;;;5115529;28;20028;-41
2021/01/07 09:22:35;;;;;;;4.60;3.08;;;7.60;79.70;;;;;;5123399;28;20038;-41
2021/01/07 09:25:01;;;;;;;6.03;3.50;;;7.60;79.80;;;;;;5123283;28;20030;-41
2021/01/07 09:27:27;;;;;;;6.28;3.50;;;7.50;79.70;;;;;;5121739;28;20103;-41
2021/01/07 09:29:53;;;;;;;3.67;2.88;;;7.50;79.70;;;;;;5116667;28;20039;-41
2021/01/07 09:32:20;;;;;;;4.50;3.10;;;7.50;79.80;;;;;;5103057;28;20024;-41
2021/01/07 09:34:46;;;;;;;4.43;3.03;;;7.50;79.80;;;;;;5102986;28;20035;-41
2021/01/07 09:37:19;;;;;;;3.80;2.90;;;7.50;79.80;;;;;;5094971;28;20030;-41
2021/01/07 09:39:47;;;;;;;3.92;3.25;;;7.50;79.80;;;;;;5120396;28;20031;-41
2021/01/07 09:42:13;;;;;;;4.65;3.03;;;7.50;79.80;;;;;;5102661;28;20036;-42
2021/01/07 09:44:39;;;;;;;5.00;3.35;;;7.50;79.80;;;;;;5102688;28;20039;-41
2021/01/07 09:47:06;;;;;;;4.68;3.10;;;7.50;79.80;;;;;;5102481;28;20034;-41
2021/01/07 09:49:33;;;;;;;6.38;3.53;;;7.50;79.80;;;;;;5108874;28;20124;-41
2021/01/07 09:51:59;;;;;;;5.38;2.60;;;7.50;79.90;;;;;;5122590;28;20036;-41
2021/01/07 09:54:25;;;;;;;6.28;3.17;;;7.50;79.80;;;;;;5122949;28;20023;-41
2021/01/07 09:56:53;;;;;;;4.95;3.60;;;7.50;79.90;;;;;;5122658;28;20037;-41
2021/01/07 09:59:22;;;;;;;;;;;7.40;79.80;;;;;;5122041;28;20027;-41
2021/01/07 10:01:52;;;;;;;4.43;2.90;;;7.40;79.80;;;;;;5102616;28;19947;-41
2021/01/07 10:04:18;;;;;;;4.95;3.05;;;7.40;79.80;;;;;;5102684;28;20036;-41
2021/01/07 10:06:44;;;;;;;3.83;3.17;;;7.40;79.90;;;;;;5102181;28;20196;-41
2021/01/07 10:09:11;;;;;;;5.60;3.58;;;7.40;79.90;;;;;;5102232;28;20043;-41
2021/01/07 10:11:37;;;;;;;6.10;3.35;;;7.40;79.90;;;;;;5102410;28;20136;-42
2021/01/07 10:14:03;;;;;;;6.70;3.63;;;7.40;79.80;;;;;;5102614;28;20407;-41
2021/01/07 10:16:29;;;;;;;5.38;3.53;;;7.40;79.80;;;;;;5102194;28;20059;-41
2021/01/07 10:18:55;;;;;;;5.43;3.00;;;7.30;79.80;;;;;;5102337;28;20036;-41
2021/01/07 10:21:25;;;;;;;5.05;3.42;;;7.30;80.00;;;;;;5102223;28;20024;-41
2021/01/07 10:23:54;;;;;;;4.55;3.50;;;7.30;79.90;;;;;;5102170;28;20102;-41
2021/01/07 10:26:20;;;;;;;5.30;3.50;;;7.30;79.90;;;;;;5100423;28;20078;-41
2021/01/07 10:28:47;;;;;;;5.37;3.43;;;7.30;79.90;;;;;;5102479;28;20411;-42
2021/01/07 10:31:17;;;;;;;5.55;3.78;;;7.30;80.00;;;;;;5084801;28;20017;-41
2021/01/07 10:33:46;;;;;;;4.88;3.42;;;7.30;79.90;;;;;;5081998;28;20039;-41
2021/01/07 10:36:15;;;;;;;5.13;3.17;;;7.30;80.00;;;;;;5086659;28;20573;-41
2021/01/07 10:38:42;;;;;;;6.18;3.63;;;7.30;80.00;;;;;;5101840;28;20040;-41
2021/01/07 10:41:08;;;;;;;4.97;3.55;;;7.20;79.90;;;;;;5102181;28;20066;-41
2021/01/07 10:43:35;;;;;;;5.57;3.45;;;7.20;79.90;;;;;;5107413;28;20028;-41
2021/01/07 10:46:01;;;;;;;4.72;3.67;;;7.20;79.90;;;;;;5103006;28;20035;-41
2021/01/07 10:48:28;;;;;;;5.63;3.55;;;7.20;79.90;;;;;;5102024;28;20063;-41
2021/01/07 10:50:54;;;;;;;5.40;3.33;;;7.20;79.90;;;;;;5119548;28;20024;-41
2021/01/07 10:53:44;;;;;;;4.68;3.28;;;7.20;79.90;;;;;;5122488;28;20035;-41
2021/01/07 10:56:44;;;;;;;5.63;3.38;;;7.20;80.00;;;;;;5121163;28;20050;-41
2021/01/07 10:59:17;;;;;;;4.65;3.05;;;7.20;80.00;;;;;;5121628;28;20656;-41
2021/01/07 11:01:58;;;;;;;5.63;3.58;;;7.20;80.00;;;;;;5100437;28;20481;-41
2021/01/07 11:04:41;;;;;;;4.60;3.42;;;7.20;80.00;;;;;;5104038;28;20054;-41
2021/01/07 11:07:14;;;;;;;5.50;3.38;;;7.10;80.00;;;;;;5121002;28;20027;-41
2021/01/07 11:09:41;;;;;;;5.38;3.65;;;7.10;80.00;;;;;;5125602;28;20035;-41
2021/01/07 11:12:11;;;;;;;5.50;3.50;;;7.10;80.00;;;;;;5125862;28;20019;-41
2021/01/07 11:14:50;;;;;;;4.70;3.25;;;7.10;80.10;;;;;;5124359;28;20275;-41
2021/01/07 11:17:19;;;;;;;5.03;3.20;;;7.10;80.00;;;;;;5124262;28;20023;-42
2021/01/07 11:19:47;;;;;;;5.20;3.25;;;7.10;80.00;;;;;;5124428;28;20047;-41
2021/01/07 11:22:26;;;;;;;4.97;3.20;;;7.10;80.00;;;;;;5107606;28;20051;-41
2021/01/07 11:24:52;;;;;;;5.80;3.67;;;7.10;80.00;;;;;;5124247;28;20024;-41
2021/01/07 11:27:19;;;;;;;3.53;2.75;;;7.00;80.00;;;;;;5125223;28;20047;-41
2021/01/07 11:29:45;;;;;;;5.03;3.50;;;7.00;80.00;;;;;;5102153;28;20113;-41
2021/01/07 11:32:11;;;;;;;4.53;3.60;;;7.00;80.00;;;;;;5104998;28;20465;-41
2021/01/07 11:34:37;;;;;;;6.38;4.00;;;7.00;80.00;;;;;;5104783;28;20028;-42
2021/01/07 11:37:32;;;;;;;4.97;3.38;;;7.00;80.00;;;;;;5091715;28;20028;-41
2021/01/07 11:39:58;;;;;;;4.97;3.25;;;7.00;80.10;;;;;;5083321;28;20025;-41
2021/01/07 11:42:37;;;;;;;5.85;3.42;;;7.00;80.10;;;;;;5101763;28;20032;-41
2021/01/07 11:45:13;;;;;;;6.03;3.85;;;7.00;80.10;;;;;;5104700;28;20152;-41
2021/01/07 11:47:45;;;;;;;5.10;3.45;;;7.00;80.10;;;;;;5103188;28;20020;-41
2021/01/07 11:50:11;;;;;;;4.43;3.17;;;7.00;80.10;;;;;;5107616;28;20020;-41
2021/01/07 11:52:37;;;;;;;8.65;3.72;;;7.00;80.20;;;;;;5086493;28;20032;-41
2021/01/07 11:55:04;;;;;;;4.15;2.95;;;7.00;80.20;;;;;;5102723;28;20028;-41
2021/01/07 11:57:32;;;;;;;4.60;2.53;;;6.90;80.10;;;;;;5103099;28;20058;-41
2021/01/07 11:59:58;;;;;;;4.18;3.15;;;6.90;80.10;;;;;;5110001;28;20032;-41
2021/01/07 12:02:24;;;;;;;5.78;3.35;;;6.90;80.10;;;;;;5123423;28;20400;-41
2021/01/07 12:04:51;;;;;;;4.40;3.17;;;6.90;80.20;;;;;;5106272;28;20046;-40
2021/01/07 12:07:28;;;;;;;3.90;3.13;;;6.90;80.10;;;;;;5123178;28;20028;-41
2021/01/07 12:09:54;;;;;;;6.22;3.50;;;6.90;80.10;;;;;;5124845;28;20039;-40
2021/01/07 12:12:20;;;;;;;5.63;3.60;;;6.90;80.10;;;;;;5123263;28;20122;-41
2021/01/07 12:14:54;;;;;;;4.85;3.45;;;6.90;80.10;;;;;;5105667;28;20092;-41
2021/01/07 12:17:20;;;;;;;4.90;3.67;;;6.90;80.20;;;;;;5124537;28;20080;-41
2021/01/07 12:19:46;;;;;;;4.30;3.30;;;6.90;80.20;;;;;;5124441;28;20034;-41
2021/01/07 12:22:16;;;;;;;4.88;3.40;;;6.90;80.10;;;;;;5124490;28;20034;-41
2021/01/07 12:24:43;;;;;;;5.15;3.30;;;6.90;80.20;;;;;;5124039;28;20032;-40
2021/01/07 12:27:10;;;;;;;5.20;3.45;;;6.80;80.00;;;;;;5124194;28;20055;-41
2021/01/07 12:29:40;;;;;;;4.32;3.13;;;6.90;80.80;;;;;;5118674;28;20112;-41
2021/01/07 12:32:14;;;;;;;5.28;3.50;;;6.80;80.10;;;;;;5102517;28;20184;-41
2021/01/07 12:34:47;;;;;;;4.93;3.40;;;6.80;80.00;;;;;;5102133;28;20677;-41
2021/01/07 12:37:19;;;;;;;5.07;3.38;;;6.80;80.00;;;;;;5105151;28;20055;-41
2021/01/07 12:40:07;;;;;;;5.15;3.35;;;6.80;80.10;;;;;;5102434;28;20035;-41
2021/01/07 12:42:37;;;;;;;4.38;3.33;;;6.80;80.10;;;;;;5103656;28;20028;-41
2021/01/07 12:45:04;;;;;;;4.63;3.30;;;6.80;80.20;;;;;;5101978;28;20587;-41
2021/01/07 12:47:30;;;;;;;4.35;3.20;;;6.80;80.20;;;;;;5103461;28;20108;-41
2021/01/07 12:49:57;;;;;;;4.85;3.20;;;6.80;80.20;;;;;;5106952;28;20062;-41
2021/01/07 12:52:24;;;;;;;4.35;3.05;;;6.80;80.20;;;;;;5103278;28;20035;-41
2021/01/07 12:54:54;;;;;;;4.70;3.53;;;6.80;80.20;;;;;;5103384;28;20035;-41
2021/01/07 12:57:49;;;;;;;4.47;3.47;;;6.80;80.10;;;;;;5103283;28;20020;-41
2021/01/07 13:00:17;;;;;;;6.35;3.03;;;6.70;80.10;;;;;;5112183;28;20095;-41
2021/01/07 13:03:03;;;;;;;5.18;3.53;;;6.70;80.10;;;;;;5122203;28;20047;-41
2021/01/07 13:05:38;;;;;;;3.85;2.67;;;6.70;80.20;;;;;;5122007;28;20487;-41
2021/01/07 13:08:05;;;;;;;4.03;3.22;;;6.70;80.20;;;;;;5122020;28;20055;-41